createdAt,value
2019-05-23T00:01:48.885Z,2.57
2019-05-23T00:04:20.940Z,2.33
2019-05-23T00:06:48.386Z,2.47
2019-05-23T00:09:15.905Z,2.40
2019-05-23T00:11:47.697Z,2.60
2019-05-23T00:14:24.041Z,2.80
2019-05-23T00:16:51.829Z,3.27
2019-05-23T00:19:20.434Z,3.07
2019-05-23T00:21:49.051Z,3.27
2019-05-23T00:24:17.023Z,4.20
2019-05-23T00:26:44.787Z,3.00
2019-05-23T00:29:12.187Z,2.57
2019-05-23T00:31:41.169Z,1.90
2019-05-23T00:34:10.135Z,1.77
2019-05-23T00:36:37.464Z,1.93
2019-05-23T00:39:07.625Z,1.70
2019-05-23T00:41:35.655Z,1.30
2019-05-23T00:44:03.296Z,1.80
2019-05-23T00:46:31.724Z,1.10
2019-05-23T00:51:47.057Z,1.20
2019-05-23T00:54:15.889Z,2.00
2019-05-23T00:56:43.233Z,1.57
2019-05-23T00:59:25.623Z,1.20
2019-05-23T01:01:41.485Z,1.40
2019-05-23T01:04:09.546Z,1.33
2019-05-23T01:06:37.397Z,0.80
2019-05-23T01:09:07.002Z,2.00
2019-05-23T01:11:34.875Z,1.43
2019-05-23T01:14:02.879Z,1.07
2019-05-23T01:16:32.023Z,0.80
2019-05-23T01:18:59.916Z,0.70
2019-05-23T01:21:45.497Z,1.13
2019-05-23T01:24:14.485Z,0.97
2019-05-23T01:26:42.293Z,0.70
2019-05-23T01:29:10.197Z,0.90
2019-05-23T01:31:45.357Z,1.03
2019-05-23T01:34:14.325Z,0.70
2019-05-23T01:36:42.111Z,1.97
2019-05-23T01:39:10.381Z,0.60
2019-05-23T01:41:37.783Z,0.60
2019-05-23T01:44:06.887Z,1.17
2019-05-23T01:46:34.581Z,1.07
2019-05-23T01:49:02.487Z,0.93
2019-05-23T01:51:30.599Z,1.17
2019-05-23T01:53:58.010Z,0.60
2019-05-23T01:56:25.597Z,0.40
2019-05-23T01:58:53.211Z,0.40
2019-05-23T02:01:21.029Z,0.40
2019-05-23T02:03:48.936Z,0.30
2019-05-23T02:06:16.561Z,0.40
2019-05-23T02:08:44.742Z,0.40
2019-05-23T02:11:12.315Z,0.30
2019-05-23T02:13:40.112Z,0.50
2019-05-23T02:16:09.198Z,0.40
2019-05-23T02:18:36.641Z,0.50
2019-05-23T02:21:04.458Z,0.50
2019-05-23T02:23:31.956Z,0.30
2019-05-23T02:25:59.782Z,0.40
2019-05-23T02:28:28.184Z,1.07
2019-05-23T02:30:55.583Z,1.40
2019-05-23T02:33:24.276Z,0.70
2019-05-23T02:35:51.645Z,0.63
2019-05-23T02:38:36.857Z,0.60
2019-05-23T02:41:08.617Z,0.70
2019-05-23T02:43:37.048Z,0.77
2019-05-23T02:46:06.274Z,0.87
2019-05-23T02:48:35.890Z,0.80
2019-05-23T02:51:08.545Z,0.97
2019-05-23T02:53:37.457Z,0.87
2019-05-23T02:56:08.092Z,2.07
2019-05-23T02:58:38.757Z,1.70
2019-05-23T03:01:12.038Z,1.27
2019-05-23T03:03:39.370Z,0.80
2019-05-23T03:06:08.352Z,0.80
2019-05-23T03:08:37.096Z,1.10
2019-05-23T03:11:15.796Z,0.77
2019-05-23T03:13:44.826Z,1.23
2019-05-23T03:16:15.251Z,0.57
2019-05-23T03:18:43.934Z,0.70
2019-05-23T03:21:11.308Z,1.23
2019-05-23T03:23:38.662Z,1.63
2019-05-23T03:26:10.518Z,0.60
2019-05-23T03:28:42.680Z,1.73
2019-05-23T03:31:33.201Z,0.60
2019-05-23T03:33:46.316Z,0.80
2019-05-23T03:36:13.997Z,0.50
2019-05-23T03:38:41.351Z,0.80
2019-05-23T03:41:08.825Z,0.60
2019-05-23T03:43:36.603Z,1.30
2019-05-23T03:46:14.474Z,1.10
2019-05-23T03:48:42.351Z,0.60
2019-05-23T03:51:10.305Z,0.60
2019-05-23T03:53:39.634Z,0.80
2019-05-23T03:56:07.739Z,0.87
2019-05-23T03:58:35.429Z,0.60
2019-05-23T04:01:05.409Z,1.27
2019-05-23T04:03:33.071Z,0.60
2019-05-23T04:06:00.533Z,0.77
2019-05-23T04:08:28.285Z,0.57
2019-05-23T04:10:56.504Z,0.60
2019-05-23T04:13:24.196Z,0.50
2019-05-23T04:15:51.597Z,0.70
2019-05-23T04:18:18.904Z,1.03
2019-05-23T04:20:46.604Z,3.27
2019-05-23T04:23:14.276Z,1.03
2019-05-23T04:25:41.665Z,0.80
2019-05-23T04:28:08.988Z,1.00
2019-05-23T04:30:36.510Z,0.53
2019-05-23T04:33:04.647Z,0.90
2019-05-23T04:35:32.071Z,1.00
2019-05-23T04:37:59.603Z,0.67
2019-05-23T04:40:27.061Z,0.40
2019-05-23T04:42:54.408Z,0.60
2019-05-23T04:45:22.077Z,1.07
2019-05-23T04:47:49.864Z,0.70
2019-05-23T04:50:18.248Z,1.30
2019-05-23T04:52:45.950Z,1.33
2019-05-23T04:55:14.979Z,1.30
2019-05-23T04:57:42.967Z,0.90
2019-05-23T05:00:14.990Z,1.27
2019-05-23T05:02:43.251Z,1.60
2019-05-23T05:05:11.731Z,1.43
2019-05-23T05:07:40.278Z,2.20
2019-05-23T05:10:08.657Z,1.43
2019-05-23T05:12:36.373Z,2.23
2019-05-23T05:15:03.888Z,1.63
2019-05-23T05:17:31.683Z,1.53
2019-05-23T05:20:00.177Z,2.53
2019-05-23T05:22:27.563Z,1.63
2019-05-23T05:24:54.883Z,1.50
2019-05-23T05:27:22.782Z,3.97
2019-05-23T05:29:50.239Z,4.50
2019-05-23T05:32:18.209Z,6.37
2019-05-23T05:34:45.586Z,1.53
2019-05-23T05:37:13.059Z,1.90
2019-05-23T05:39:40.530Z,2.70
2019-05-23T05:42:09.298Z,2.70
2019-05-23T05:44:37.265Z,1.70
2019-05-23T05:47:05.266Z,1.60
2019-05-23T05:49:32.585Z,3.40
2019-05-23T05:52:00.010Z,14.27
2019-05-23T05:54:27.907Z,3.23
2019-05-23T05:56:55.411Z,2.30
2019-05-23T05:59:22.796Z,2.03
2019-05-23T06:01:50.950Z,1.20
2019-05-23T06:04:18.486Z,4.70
2019-05-23T06:06:50.069Z,2.53
2019-05-23T06:09:20.723Z,4.23
2019-05-23T06:11:48.204Z,2.90
2019-05-23T06:14:15.944Z,1.67
2019-05-23T06:16:43.393Z,1.20
2019-05-23T06:19:10.719Z,1.47
2019-05-23T06:21:38.042Z,2.50
2019-05-23T06:24:05.447Z,1.40
2019-05-23T06:26:34.882Z,0.80
2019-05-23T06:29:02.255Z,1.43
2019-05-23T06:31:29.656Z,1.90
2019-05-23T06:33:56.971Z,3.30
2019-05-23T06:36:25.608Z,2.37
2019-05-23T06:38:53.307Z,1.37
2019-05-23T06:41:21.347Z,2.20
2019-05-23T06:43:49.406Z,1.43
2019-05-23T06:46:16.880Z,1.33
2019-05-23T06:48:45.721Z,1.80
2019-05-23T06:51:13.536Z,1.87
2019-05-23T06:53:40.869Z,1.53
2019-05-23T06:56:08.297Z,3.80
2019-05-23T06:58:35.594Z,1.80
2019-05-23T07:01:03.279Z,3.37
2019-05-23T07:03:41.685Z,2.07
2019-05-23T07:06:00.189Z,1.40
2019-05-23T07:08:29.202Z,3.43
2019-05-23T07:10:56.517Z,3.17
2019-05-23T07:13:25.647Z,1.53
2019-05-23T07:15:52.953Z,3.77
2019-05-23T07:18:20.413Z,4.27
2019-05-23T07:20:47.769Z,3.50
2019-05-23T07:23:15.080Z,3.60
2019-05-23T07:25:42.476Z,3.33
2019-05-23T07:28:09.916Z,2.57
2019-05-23T07:30:37.261Z,2.13
2019-05-23T07:33:04.721Z,4.43
2019-05-23T07:35:32.620Z,2.83
2019-05-23T07:38:00.047Z,1.47
2019-05-23T07:40:28.076Z,3.70
2019-05-23T07:42:55.474Z,1.93
2019-05-23T07:45:26.975Z,2.70
2019-05-23T07:47:54.340Z,4.23
2019-05-23T07:50:22.706Z,2.50
2019-05-23T07:52:50.763Z,2.27
2019-05-23T07:55:25.518Z,2.77
2019-05-23T07:57:53.230Z,3.33
2019-05-23T08:00:28.369Z,3.23
2019-05-23T08:02:56.019Z,2.90
2019-05-23T08:05:23.686Z,3.13
2019-05-23T08:07:51.081Z,2.17
2019-05-23T08:10:32.677Z,1.87
2019-05-23T08:12:47.710Z,2.03
2019-05-23T08:15:15.225Z,2.60
2019-05-23T08:17:42.967Z,3.30
2019-05-23T08:20:12.939Z,1.30
2019-05-23T08:22:40.572Z,1.50
2019-05-23T08:25:07.973Z,1.50
2019-05-23T08:27:37.740Z,1.63
2019-05-23T08:30:06.458Z,2.63
2019-05-23T08:32:33.776Z,2.33
2019-05-23T08:35:01.198Z,2.20
2019-05-23T08:37:29.024Z,1.70
2019-05-23T08:39:56.415Z,1.43
2019-05-23T08:42:24.952Z,3.60
2019-05-23T08:44:52.520Z,3.20
2019-05-23T08:47:21.080Z,7.70
2019-05-23T08:49:48.398Z,2.07
2019-05-23T08:52:15.743Z,4.83
2019-05-23T08:54:43.204Z,6.03
2019-05-23T08:57:11.112Z,5.60
2019-05-23T08:59:38.737Z,2.00
2019-05-23T09:02:07.636Z,2.13
2019-05-23T09:04:35.133Z,3.70
2019-05-23T09:07:02.754Z,2.73
2019-05-23T09:09:30.647Z,3.50
2019-05-23T09:11:58.858Z,4.97
2019-05-23T09:14:26.148Z,6.67
2019-05-23T09:16:53.449Z,4.43
2019-05-23T09:19:21.220Z,4.53
2019-05-23T09:21:48.553Z,4.77
2019-05-23T09:24:15.944Z,6.10
2019-05-23T09:26:43.573Z,5.07
2019-05-23T09:29:11.312Z,9.43
2019-05-23T09:31:39.193Z,11.93
2019-05-23T09:34:06.534Z,7.27
2019-05-23T09:36:33.844Z,7.57
2019-05-23T09:39:01.646Z,6.80
2019-05-23T09:41:29.132Z,7.37
2019-05-23T09:43:56.438Z,4.83
2019-05-23T09:46:23.886Z,4.77
2019-05-23T09:48:51.567Z,6.17
2019-05-23T09:51:18.888Z,7.43
2019-05-23T09:53:47.749Z,9.13
2019-05-23T09:56:15.408Z,6.37
2019-05-23T09:58:42.701Z,5.60
2019-05-23T10:01:10.053Z,5.80
2019-05-23T10:03:37.574Z,5.47
2019-05-23T10:06:05.019Z,6.80
2019-05-23T10:08:32.444Z,6.93
2019-05-23T10:10:59.959Z,7.13
2019-05-23T10:13:38.361Z,6.00
2019-05-23T10:16:04.054Z,7.57
2019-05-23T10:18:31.440Z,8.30
2019-05-23T10:20:58.765Z,6.97
2019-05-23T10:23:26.118Z,5.57
2019-05-23T10:25:53.444Z,5.03
2019-05-23T10:28:21.152Z,7.53
2019-05-23T10:30:48.484Z,6.20
2019-05-23T10:33:16.021Z,7.30
2019-05-23T10:35:59.124Z,10.13
2019-05-23T10:38:12.388Z,7.57
2019-05-23T10:40:39.700Z,7.33
2019-05-23T10:43:07.073Z,6.37
2019-05-23T10:45:34.644Z,6.20
2019-05-23T10:48:02.210Z,5.90
2019-05-23T10:50:43.681Z,8.43
2019-05-23T10:52:58.679Z,7.60
2019-05-23T10:55:26.084Z,7.30
2019-05-23T10:57:53.569Z,7.93
2019-05-23T11:00:22.632Z,7.33
2019-05-23T11:02:50.387Z,11.27
2019-05-23T11:05:18.329Z,7.93
2019-05-23T11:07:45.632Z,10.40
2019-05-23T11:10:12.974Z,9.40
2019-05-23T11:12:40.665Z,9.77
2019-05-23T11:15:08.219Z,7.13
2019-05-23T11:17:36.019Z,10.53
2019-05-23T11:20:09.599Z,11.90
2019-05-23T11:22:36.929Z,8.53
2019-05-23T11:25:06.482Z,10.57
2019-05-23T11:27:33.888Z,9.13
2019-05-23T11:30:01.227Z,9.27
2019-05-23T11:32:28.528Z,8.53
2019-05-23T11:34:55.870Z,10.70
2019-05-23T11:37:23.457Z,9.63
2019-05-23T11:39:51.401Z,11.60
2019-05-23T11:42:19.042Z,10.40
2019-05-23T11:44:46.400Z,11.70
2019-05-23T11:47:14.582Z,16.90
2019-05-23T11:49:43.019Z,9.03
2019-05-23T11:52:11.837Z,12.20
2019-05-23T11:54:39.398Z,10.80
2019-05-23T11:57:08.363Z,9.53
2019-05-23T11:59:36.936Z,8.27
2019-05-23T12:02:08.895Z,8.83
2019-05-23T12:04:37.896Z,13.37
2019-05-23T12:07:15.621Z,9.77
2019-05-23T12:09:43.026Z,10.37
2019-05-23T12:12:10.357Z,9.93
2019-05-23T12:14:37.759Z,11.50
2019-05-23T12:17:05.288Z,10.47
2019-05-23T12:19:32.764Z,11.60
2019-05-23T12:22:00.095Z,10.30
2019-05-23T12:24:27.406Z,10.90
2019-05-23T12:26:54.818Z,8.00
2019-05-23T12:29:22.192Z,7.93
2019-05-23T12:31:50.064Z,6.17
2019-05-23T12:34:17.587Z,7.97
2019-05-23T12:36:44.863Z,8.53
2019-05-23T12:39:12.190Z,5.93
2019-05-23T12:41:40.205Z,7.30
2019-05-23T12:44:07.979Z,6.90
2019-05-23T12:46:35.693Z,9.27
2019-05-23T12:49:10.167Z,8.30
2019-05-23T12:51:41.538Z,8.40
2019-05-23T12:54:09.254Z,8.57
2019-05-23T12:56:37.198Z,7.40
2019-05-23T12:59:06.067Z,7.17
2019-05-23T13:01:34.501Z,8.97
2019-05-23T13:04:02.172Z,8.70
2019-05-23T13:06:29.506Z,11.03
2019-05-23T13:08:56.846Z,9.97
2019-05-23T13:11:24.671Z,15.30
2019-05-23T13:13:51.975Z,7.50
2019-05-23T13:16:19.354Z,9.90
2019-05-23T13:18:46.784Z,8.83
2019-05-23T13:21:14.476Z,7.10
2019-05-23T13:23:41.880Z,8.37
2019-05-23T13:26:09.858Z,7.83
2019-05-23T13:28:37.188Z,7.47
2019-05-23T13:31:04.919Z,9.13
2019-05-23T13:33:32.763Z,6.80
2019-05-23T13:36:00.101Z,8.57
2019-05-23T13:38:27.537Z,7.60
2019-05-23T13:40:55.023Z,6.93
2019-05-23T13:43:22.807Z,6.00
2019-05-23T13:45:50.184Z,7.60
2019-05-23T13:48:17.505Z,7.80
2019-05-23T13:50:44.918Z,7.37
2019-05-23T13:53:12.612Z,7.20
2019-05-23T13:55:40.029Z,10.97
2019-05-23T13:58:07.366Z,8.30
2019-05-23T14:00:35.618Z,9.77
2019-05-23T14:03:03.001Z,9.77
2019-05-23T14:05:30.578Z,12.23
2019-05-23T14:08:11.238Z,16.07
2019-05-23T14:10:27.104Z,12.60
2019-05-23T14:12:54.528Z,14.20
2019-05-23T14:15:32.610Z,15.77
2019-05-23T14:18:00.179Z,12.83
2019-05-23T14:20:27.652Z,14.57
2019-05-23T14:22:56.651Z,12.60
2019-05-23T14:25:24.362Z,15.10
2019-05-23T14:27:59.149Z,18.37
2019-05-23T14:30:37.505Z,18.53
2019-05-23T14:33:14.043Z,17.50
2019-05-23T14:35:46.089Z,17.70
2019-05-23T14:38:29.544Z,18.67
2019-05-23T14:40:44.596Z,19.47
2019-05-23T14:43:23.062Z,17.03
2019-05-23T14:45:52.091Z,16.93
2019-05-23T14:48:37.305Z,14.77
2019-05-23T14:51:12.456Z,15.83
2019-05-23T14:53:41.511Z,12.13
2019-05-23T14:56:09.251Z,14.87
2019-05-23T14:58:36.875Z,15.23
2019-05-23T15:01:04.675Z,14.70
2019-05-23T15:03:35.657Z,11.53
2019-05-23T15:06:01.669Z,13.87
2019-05-23T15:08:28.992Z,21.17
2019-05-23T15:10:56.407Z,18.17
2019-05-23T15:13:23.794Z,18.53
2019-05-23T15:15:51.199Z,16.33
2019-05-23T15:18:18.701Z,19.07
2019-05-23T15:20:46.138Z,14.30
2019-05-23T15:23:13.626Z,22.03
2019-05-23T15:25:40.986Z,21.77
2019-05-23T15:28:08.371Z,17.53
2019-05-23T15:30:35.739Z,16.60
2019-05-23T15:33:03.215Z,20.33
2019-05-23T15:35:31.341Z,20.70
2019-05-23T15:37:58.657Z,13.53
2019-05-23T15:40:26.138Z,18.63
2019-05-23T15:42:53.779Z,13.87
2019-05-23T15:45:21.142Z,12.80
2019-05-23T15:47:48.821Z,15.50
2019-05-23T15:50:17.890Z,15.63
2019-05-23T15:52:52.501Z,16.63
2019-05-23T15:55:21.572Z,19.77
2019-05-23T15:57:50.737Z,18.43
2019-05-23T16:00:19.685Z,19.63
2019-05-23T16:02:48.701Z,20.37
2019-05-23T16:05:16.600Z,22.63
2019-05-23T16:07:43.985Z,23.67
2019-05-23T16:10:12.129Z,22.47
2019-05-23T16:12:39.719Z,23.83
2019-05-23T16:15:07.659Z,20.77
2019-05-23T16:17:35.040Z,20.90
2019-05-23T16:20:02.481Z,21.63
2019-05-23T16:22:30.435Z,21.67
2019-05-23T16:24:59.008Z,20.90
2019-05-23T16:27:26.403Z,25.10
2019-05-23T16:29:53.773Z,18.67
2019-05-23T16:32:21.118Z,26.23
2019-05-23T16:34:48.579Z,22.63
2019-05-23T16:37:16.180Z,19.67
2019-05-23T16:39:48.287Z,20.97
2019-05-23T16:42:13.133Z,25.57
2019-05-23T16:44:40.456Z,25.80
2019-05-23T16:47:07.877Z,24.87
2019-05-23T16:49:35.284Z,24.60
2019-05-23T16:52:02.700Z,26.43
2019-05-23T16:54:32.007Z,21.03
2019-05-23T16:57:10.235Z,21.13
2019-05-23T16:59:54.631Z,29.63
2019-05-23T17:02:38.759Z,29.00
2019-05-23T17:05:24.362Z,28.43
2019-05-23T17:07:53.351Z,17.57
2019-05-23T17:10:38.554Z,24.97
2019-05-23T17:13:08.274Z,32.13
2019-05-23T17:15:54.100Z,29.70
2019-05-23T17:18:23.092Z,38.00
2019-05-23T17:20:52.098Z,34.43
2019-05-23T17:23:33.235Z,41.37
2019-05-23T17:26:13.919Z,36.97
2019-05-23T17:28:42.977Z,38.33
2019-05-23T17:31:14.981Z,43.60
2019-05-23T17:33:42.403Z,34.97
2019-05-23T17:36:09.784Z,33.73
2019-05-23T17:38:37.177Z,35.60
2019-05-23T17:41:04.494Z,28.63
2019-05-23T17:43:31.922Z,30.03
2019-05-23T17:45:59.272Z,32.50
2019-05-23T17:48:26.643Z,23.50
2019-05-23T17:50:54.074Z,33.03
2019-05-23T17:53:21.518Z,25.57
2019-05-23T17:55:49.044Z,28.00
2019-05-23T17:58:17.341Z,27.77
2019-05-23T18:00:46.238Z,30.07
2019-05-23T18:03:14.739Z,29.37
2019-05-23T18:05:42.074Z,31.77
2019-05-23T18:08:10.068Z,30.60
2019-05-23T18:10:44.433Z,29.10
2019-05-23T18:13:07.097Z,27.23
2019-05-23T18:15:35.379Z,25.17
2019-05-23T18:18:02.741Z,33.53
2019-05-23T18:20:30.246Z,22.90
2019-05-23T18:22:58.129Z,21.57
2019-05-23T18:25:27.124Z,24.37
2019-05-23T18:27:54.505Z,28.13
2019-05-23T18:30:35.336Z,22.63
2019-05-23T18:33:03.130Z,26.83
2019-05-23T18:35:31.038Z,24.87
2019-05-23T18:37:58.996Z,21.57
2019-05-23T18:40:26.969Z,20.07
2019-05-23T18:42:54.380Z,21.70
2019-05-23T18:45:21.836Z,20.13
2019-05-23T18:47:49.312Z,18.97
2019-05-23T18:50:17.349Z,18.07
2019-05-23T18:52:44.763Z,25.87
2019-05-23T18:55:12.089Z,24.37
2019-05-23T18:57:39.829Z,28.23
2019-05-23T19:00:07.810Z,20.77
2019-05-23T19:02:35.719Z,25.30
2019-05-23T19:05:05.414Z,26.60
2019-05-23T19:07:50.641Z,26.67
2019-05-23T19:10:17.989Z,23.73
2019-05-23T19:12:45.360Z,21.83
2019-05-23T19:15:14.750Z,19.63
2019-05-23T19:17:42.526Z,21.67
2019-05-23T19:20:09.879Z,20.97
2019-05-23T19:22:55.694Z,22.17
2019-05-23T19:25:23.940Z,23.97
2019-05-23T19:28:13.451Z,25.70
2019-05-23T19:30:41.424Z,22.67
2019-05-23T19:33:09.475Z,25.77
2019-05-23T19:35:55.864Z,27.53
2019-05-23T19:38:23.253Z,27.93
2019-05-23T19:40:50.862Z,28.87
2019-05-23T19:43:36.565Z,26.90
2019-05-23T19:46:04.026Z,26.73
2019-05-23T19:48:49.327Z,31.70
2019-05-23T19:51:35.875Z,29.13
2019-05-23T19:54:03.423Z,28.10
2019-05-23T19:56:49.171Z,31.23
2019-05-23T19:59:20.539Z,32.60
2019-05-23T20:02:05.385Z,32.67
2019-05-23T20:04:34.363Z,32.77
2019-05-23T20:07:19.388Z,37.27
2019-05-23T20:10:05.389Z,36.23
2019-05-23T20:12:50.550Z,35.57
2019-05-23T20:15:17.934Z,35.23
2019-05-23T20:18:03.465Z,34.93
2019-05-23T20:20:32.628Z,31.20
2019-05-23T20:22:59.973Z,29.20
2019-05-23T20:25:45.927Z,32.63
2019-05-23T20:28:15.335Z,32.70
2019-05-23T20:30:45.263Z,31.60
2019-05-23T20:33:12.729Z,29.23
2019-05-23T20:35:40.089Z,29.20
2019-05-23T20:38:07.487Z,31.77
2019-05-23T20:40:35.365Z,32.77
2019-05-23T20:43:02.911Z,27.03
2019-05-23T20:45:30.395Z,29.00
2019-05-23T20:47:58.115Z,32.87
2019-05-23T20:50:25.435Z,27.37
2019-05-23T20:52:52.863Z,30.13
2019-05-23T20:55:41.089Z,23.43
2019-05-23T20:58:08.879Z,27.97
2019-05-23T21:00:54.086Z,27.67
2019-05-23T21:03:23.072Z,25.63
2019-05-23T21:05:50.494Z,27.83
2019-05-23T21:08:35.770Z,23.73
2019-05-23T21:11:03.114Z,22.07
2019-05-23T21:13:30.511Z,20.90
2019-05-23T21:16:17.945Z,24.63
2019-05-23T21:18:49.268Z,23.60
2019-05-23T21:21:15.148Z,25.77
2019-05-23T21:23:42.505Z,23.60
2019-05-23T21:26:27.739Z,24.23
2019-05-23T21:28:55.097Z,28.63
2019-05-23T21:31:23.327Z,25.93
2019-05-23T21:33:50.736Z,26.10
2019-05-23T21:36:19.386Z,24.93
2019-05-23T21:39:05.144Z,29.77
2019-05-23T21:41:50.507Z,25.03
2019-05-23T21:44:36.436Z,30.13
2019-05-23T21:47:05.448Z,24.70
2019-05-23T21:49:51.056Z,25.77
2019-05-23T21:52:18.718Z,29.23
2019-05-23T21:54:46.712Z,28.97
2019-05-23T21:57:32.113Z,24.60
2019-05-23T22:00:19.276Z,23.00
2019-05-23T22:02:47.442Z,28.43
2019-05-23T22:05:16.399Z,25.77
2019-05-23T22:07:43.900Z,25.43
2019-05-23T22:10:29.119Z,33.17
2019-05-23T22:13:04.438Z,28.67
2019-05-23T22:15:43.614Z,27.80
2019-05-23T22:18:11.004Z,24.70
2019-05-23T22:20:38.305Z,26.27
2019-05-23T22:23:06.131Z,20.97
2019-05-23T22:25:33.466Z,22.40
2019-05-23T22:28:18.969Z,24.27
2019-05-23T22:30:46.284Z,19.30
2019-05-23T22:33:14.194Z,21.53
2019-05-23T22:35:41.899Z,26.20
2019-05-23T22:38:27.377Z,19.73
2019-05-23T22:40:54.701Z,18.57
2019-05-23T22:43:22.186Z,22.87
2019-05-23T22:45:49.628Z,18.77
2019-05-23T22:48:17.207Z,20.30
2019-05-23T22:51:02.328Z,18.87
2019-05-23T22:53:47.839Z,21.60
2019-05-23T22:56:15.162Z,18.73
2019-05-23T22:58:44.675Z,21.37
2019-05-23T23:01:30.126Z,19.63
2019-05-23T23:03:57.540Z,23.63
2019-05-23T23:06:25.030Z,21.23
2019-05-23T23:08:52.409Z,21.40
2019-05-23T23:11:19.738Z,21.23
2019-05-23T23:13:47.157Z,21.30
2019-05-23T23:16:14.570Z,23.07
2019-05-23T23:18:41.892Z,21.10
2019-05-23T23:21:27.660Z,22.00
2019-05-23T23:23:55.060Z,21.50
2019-05-23T23:26:40.654Z,23.57
2019-05-23T23:29:08.115Z,19.83
2019-05-23T23:31:35.528Z,22.13
2019-05-23T23:34:02.778Z,21.33
2019-05-23T23:36:30.248Z,19.43
2019-05-23T23:39:15.952Z,19.87
2019-05-23T23:41:43.378Z,20.07
2019-05-23T23:44:11.611Z,16.07
2019-05-23T23:46:57.286Z,17.10
2019-05-23T23:49:42.726Z,15.50
2019-05-23T23:52:27.808Z,16.40
2019-05-23T23:55:13.033Z,15.20
2019-05-23T23:57:58.565Z,15.10
